sensor_id;sensor_type;location;lat;lon;timestamp;P1;durP1;ratioP1;P2;durP2;ratioP2
80698;SDS011;70062;51.658;5.658;2023-12-28T07:29:53;3.20;;;1.90;;
80698;SDS011;70062;51.658;5.658;2023-12-28T07:33:21;4.60;;;2.00;;
80698;SDS011;70062;51.658;5.658;2023-12-28T07:36:27;4.00;;;2.00;;
80698;SDS011;70062;51.658;5.658;2023-12-28T08:44:12;3.50;;;2.00;;
80698;SDS011;70062;51.658;5.658;2023-12-28T08:46:37;4.40;;;2.20;;
80698;SDS011;70062;51.658;5.658;2023-12-28T09:01:26;2.50;;;1.70;;
80698;SDS011;70062;51.658;5.658;2023-12-28T09:17:22;2.60;;;1.60;;
80698;SDS011;70062;51.658;5.658;2023-12-28T09:21:28;4.00;;;1.80;;
80698;SDS011;70062;51.658;5.658;2023-12-28T09:25:16;3.40;;;1.60;;
80698;SDS011;70062;51.658;5.658;2023-12-28T09:29:15;3.70;;;1.50;;
80698;SDS011;70062;51.658;5.658;2023-12-28T09:32:20;7.80;;;2.10;;
80698;SDS011;70062;51.658;5.658;2023-12-28T09:36:54;4.80;;;1.90;;
80698;SDS011;70062;51.658;5.658;2023-12-28T09:40:24;6.60;;;1.70;;
80698;SDS011;70062;51.658;5.658;2023-12-28T09:44:13;6.80;;;1.80;;
80698;SDS011;70062;51.658;5.658;2023-12-28T09:47:39;6.10;;;1.80;;
80698;SDS011;70062;51.658;5.658;2023-12-28T09:51:47;9.20;;;1.90;;
80698;SDS011;70062;51.658;5.658;2023-12-28T09:59:55;13.10;;;2.10;;
80698;SDS011;70062;51.658;5.658;2023-12-28T10:02:43;16.30;;;2.00;;
80698;SDS011;70062;51.658;5.658;2023-12-28T10:06:08;8.20;;;2.00;;
80698;SDS011;70062;51.658;5.658;2023-12-28T10:08:50;14.80;;;2.10;;
80698;SDS011;70062;51.658;5.658;2023-12-28T10:12:17;6.50;;;1.60;;
80698;SDS011;70062;51.658;5.658;2023-12-28T10:18:50;8.80;;;1.90;;
80698;SDS011;70062;51.658;5.658;2023-12-28T10:22:01;8.30;;;2.10;;
80698;SDS011;70062;51.658;5.658;2023-12-28T10:25:27;9.80;;;2.00;;
80698;SDS011;70062;51.658;5.658;2023-12-28T10:28:59;7.30;;;1.80;;
80698;SDS011;70062;51.658;5.658;2023-12-28T10:32:25;8.60;;;1.90;;
80698;SDS011;70062;51.658;5.658;2023-12-28T10:35:31;6.50;;;2.00;;
80698;SDS011;70062;51.658;5.658;2023-12-28T10:38:41;7.80;;;1.80;;
80698;SDS011;70062;51.658;5.658;2023-12-28T10:42:08;5.70;;;1.80;;
80698;SDS011;70062;51.658;5.658;2023-12-28T10:45:39;7.30;;;1.80;;
80698;SDS011;70062;51.658;5.658;2023-12-28T10:49:12;5.40;;;2.10;;
80698;SDS011;70062;51.658;5.658;2023-12-28T10:52:33;6.00;;;1.90;;
80698;SDS011;70062;51.658;5.658;2023-12-28T10:59:39;12.20;;;1.90;;
80698;SDS011;70062;51.658;5.658;2023-12-28T11:03:01;9.90;;;1.70;;
80698;SDS011;70062;51.658;5.658;2023-12-28T11:06:24;7.50;;;2.00;;
80698;SDS011;70062;51.658;5.658;2023-12-28T11:09:40;9.00;;;2.00;;
80698;SDS011;70062;51.658;5.658;2023-12-28T11:13:08;5.50;;;1.60;;
80698;SDS011;70062;51.658;5.658;2023-12-28T11:16:35;8.30;;;2.00;;
80698;SDS011;70062;51.658;5.658;2023-12-28T11:22:10;6.90;;;2.10;;
80698;SDS011;70062;51.658;5.658;2023-12-28T11:25:37;11.60;;;1.90;;
80698;SDS011;70062;51.658;5.658;2023-12-28T11:29:04;5.90;;;1.80;;
80698;SDS011;70062;51.658;5.658;2023-12-28T11:32:52;5.40;;;1.70;;
80698;SDS011;70062;51.658;5.658;2023-12-28T11:35:23;5.30;;;1.80;;
80698;SDS011;70062;51.658;5.658;2023-12-28T11:58:50;6.20;;;1.70;;
80698;SDS011;70062;51.658;5.658;2023-12-28T12:02:51;8.00;;;2.60;;
80698;SDS011;70062;51.658;5.658;2023-12-28T12:09:45;9.20;;;4.20;;
80698;SDS011;70062;51.658;5.658;2023-12-28T12:14:18;7.70;;;4.10;;
80698;SDS011;70062;51.658;5.658;2023-12-28T12:17:44;12.60;;;4.30;;
80698;SDS011;70062;51.658;5.658;2023-12-28T12:21:11;10.40;;;4.20;;
80698;SDS011;70062;51.658;5.658;2023-12-28T12:24:41;7.70;;;3.90;;
80698;SDS011;70062;51.658;5.658;2023-12-28T12:42:05;10.20;;;2.90;;
80698;SDS011;70062;51.658;5.658;2023-12-28T12:45:33;8.40;;;2.80;;
80698;SDS011;70062;51.658;5.658;2023-12-28T12:48:59;5.80;;;2.40;;
80698;SDS011;70062;51.658;5.658;2023-12-28T12:52:25;8.70;;;2.90;;
80698;SDS011;70062;51.658;5.658;2023-12-28T12:55:54;6.30;;;2.70;;
80698;SDS011;70062;51.658;5.658;2023-12-28T12:59:32;6.90;;;2.50;;
80698;SDS011;70062;51.658;5.658;2023-12-28T13:03:09;6.60;;;2.60;;
80698;SDS011;70062;51.658;5.658;2023-12-28T13:06:41;5.00;;;2.40;;
80698;SDS011;70062;51.658;5.658;2023-12-28T13:11:14;8.00;;;2.50;;
80698;SDS011;70062;51.658;5.658;2023-12-28T13:15:40;7.50;;;2.70;;
80698;SDS011;70062;51.658;5.658;2023-12-28T13:19:11;9.40;;;2.50;;
80698;SDS011;70062;51.658;5.658;2023-12-28T13:22:43;6.40;;;2.10;;
80698;SDS011;70062;51.658;5.658;2023-12-28T13:26:11;6.50;;;2.20;;
80698;SDS011;70062;51.658;5.658;2023-12-28T13:29:41;6.30;;;2.20;;
80698;SDS011;70062;51.658;5.658;2023-12-28T13:34:09;4.90;;;2.30;;
80698;SDS011;70062;51.658;5.658;2023-12-28T13:43:11;7.70;;;2.30;;
80698;SDS011;70062;51.658;5.658;2023-12-28T13:52:05;6.40;;;2.10;;
80698;SDS011;70062;51.658;5.658;2023-12-28T13:56:33;6.30;;;2.10;;
80698;SDS011;70062;51.658;5.658;2023-12-28T14:10:11;3.90;;;1.90;;
80698;SDS011;70062;51.658;5.658;2023-12-28T14:15:02;5.70;;;2.20;;
80698;SDS011;70062;51.658;5.658;2023-12-28T14:19:06;5.40;;;2.00;;
80698;SDS011;70062;51.658;5.658;2023-12-28T14:25:58;4.60;;;1.90;;
80698;SDS011;70062;51.658;5.658;2023-12-28T14:29:28;3.40;;;1.80;;
80698;SDS011;70062;51.658;5.658;2023-12-28T15:00:07;4.20;;;1.90;;
80698;SDS011;70062;51.658;5.658;2023-12-28T15:03:42;4.00;;;1.70;;
80698;SDS011;70062;51.658;5.658;2023-12-28T15:07:27;5.50;;;1.80;;
80698;SDS011;70062;51.658;5.658;2023-12-28T16:45:53;12.20;;;3.10;;
80698;SDS011;70062;51.658;5.658;2023-12-28T16:49:54;9.90;;;3.00;;
80698;SDS011;70062;51.658;5.658;2023-12-28T17:50:08;19.50;;;4.60;;
80698;SDS011;70062;51.658;5.658;2023-12-28T23:52:34;6.50;;;2.60;;
80698;SDS011;70062;51.658;5.658;2023-12-28T23:57:07;9.20;;;2.90;;
